sensor_id;sensor_type;location;lat;lon;timestamp;pressure;altitude;pressure_sealevel;temperature;humidity
51053;BME280;37093;37.716;-122.060;2023-07-20T00:00:46;99852.17;;;29.01;27.68
51053;BME280;37093;37.716;-122.060;2023-07-20T00:03:15;99852.59;;;29.04;28.10
51053;BME280;37093;37.716;-122.060;2023-07-20T00:05:44;99856.06;;;28.70;28.68
51053;BME280;37093;37.716;-122.060;2023-07-20T00:08:12;99853.81;;;28.00;29.10
51053;BME280;37093;37.716;-122.060;2023-07-20T00:10:41;99853.71;;;28.78;28.45
51053;BME280;37093;37.716;-122.060;2023-07-20T00:13:10;99855.03;;;27.57;30.91
51053;BME280;37093;37.716;-122.060;2023-07-20T00:15:39;99852.46;;;27.95;29.48
51053;BME280;37093;37.716;-122.060;2023-07-20T00:18:07;99852.87;;;28.23;30.65
51053;BME280;37093;37.716;-122.060;2023-07-20T00:20:36;99853.54;;;27.73;30.17
51053;BME280;37093;37.716;-122.060;2023-07-20T00:23:04;99859.67;;;27.20;31.31
51053;BME280;37093;37.716;-122.060;2023-07-20T00:25:33;99855.47;;;27.49;31.10
51053;BME280;37093;37.716;-122.060;2023-07-20T00:28:01;99854.01;;;27.84;30.53
51053;BME280;37093;37.716;-122.060;2023-07-20T00:30:30;99851.04;;;28.10;30.22
51053;BME280;37093;37.716;-122.060;2023-07-20T00:32:58;99858.93;;;27.57;30.72
51053;BME280;37093;37.716;-122.060;2023-07-20T00:35:27;99860.75;;;26.90;31.59
51053;BME280;37093;37.716;-122.060;2023-07-20T00:37:55;99860.38;;;26.93;32.08
51053;BME280;37093;37.716;-122.060;2023-07-20T00:40:23;99857.86;;;27.35;31.11
51053;BME280;37093;37.716;-122.060;2023-07-20T00:42:52;99855.70;;;27.77;30.23
51053;BME280;37093;37.716;-122.060;2023-07-20T00:45:20;99861.01;;;27.33;30.77
51053;BME280;37093;37.716;-122.060;2023-07-20T00:47:49;99860.78;;;27.06;31.13
51053;BME280;37093;37.716;-122.060;2023-07-20T00:50:17;99857.23;;;27.39;30.00
51053;BME280;37093;37.716;-122.060;2023-07-20T00:52:46;99859.97;;;26.60;31.23
51053;BME280;37093;37.716;-122.060;2023-07-20T00:55:14;99859.40;;;27.13;30.78
51053;BME280;37093;37.716;-122.060;2023-07-20T00:57:43;99856.22;;;26.96;30.76
51053;BME280;37093;37.716;-122.060;2023-07-20T01:00:12;99855.82;;;27.77;29.57
51053;BME280;37093;37.716;-122.060;2023-07-20T01:02:41;99859.16;;;27.43;29.64
51053;BME280;37093;37.716;-122.060;2023-07-20T01:05:11;99861.02;;;27.57;29.92
51053;BME280;37093;37.716;-122.060;2023-07-20T01:07:46;99862.66;;;27.19;30.47
51053;BME280;37093;37.716;-122.060;2023-07-20T01:10:29;99864.61;;;26.42;31.18
51053;BME280;37093;37.716;-122.060;2023-07-20T01:13:00;99861.07;;;26.66;31.01
51053;BME280;37093;37.716;-122.060;2023-07-20T01:15:35;99858.02;;;27.17;30.89
51053;BME280;37093;37.716;-122.060;2023-07-20T01:18:04;99855.36;;;26.33;31.69
51053;BME280;37093;37.716;-122.060;2023-07-20T01:20:38;99855.10;;;26.86;30.71
51053;BME280;37093;37.716;-122.060;2023-07-20T01:23:27;99855.07;;;25.95;31.84
51053;BME280;37093;37.716;-122.060;2023-07-20T01:26:10;99854.63;;;26.42;31.55
51053;BME280;37093;37.716;-122.060;2023-07-20T01:28:54;99859.11;;;26.65;31.47
51053;BME280;37093;37.716;-122.060;2023-07-20T01:31:29;99858.42;;;25.52;32.99
51053;BME280;37093;37.716;-122.060;2023-07-20T01:34:01;99861.72;;;26.19;32.26
51053;BME280;37093;37.716;-122.060;2023-07-20T01:36:35;99863.65;;;26.31;32.35
51053;BME280;37093;37.716;-122.060;2023-07-20T01:39:07;99865.17;;;27.05;31.35
51053;BME280;37093;37.716;-122.060;2023-07-20T01:41:36;99863.66;;;24.70;34.05
51053;BME280;37093;37.716;-122.060;2023-07-20T01:44:05;99865.06;;;25.26;33.32
51053;BME280;37093;37.716;-122.060;2023-07-20T01:46:37;99868.50;;;25.93;32.55
51053;BME280;37093;37.716;-122.060;2023-07-20T01:49:05;99874.51;;;26.58;32.19
51053;BME280;37093;37.716;-122.060;2023-07-20T01:51:35;99871.61;;;25.90;32.48
51053;BME280;37093;37.716;-122.060;2023-07-20T01:54:05;99878.70;;;25.71;33.10
51053;BME280;37093;37.716;-122.060;2023-07-20T01:56:36;99882.49;;;24.31;35.19
51053;BME280;37093;37.716;-122.060;2023-07-20T01:59:07;99883.05;;;24.71;34.58
51053;BME280;37093;37.716;-122.060;2023-07-20T02:01:35;99881.70;;;24.53;34.78
51053;BME280;37093;37.716;-122.060;2023-07-20T02:04:04;99885.03;;;24.77;34.94
51053;BME280;37093;37.716;-122.060;2023-07-20T02:06:34;99883.67;;;24.08;35.86
51053;BME280;37093;37.716;-122.060;2023-07-20T02:09:02;99883.91;;;24.48;35.71
51053;BME280;37093;37.716;-122.060;2023-07-20T02:11:31;99888.50;;;24.07;35.92
51053;BME280;37093;37.716;-122.060;2023-07-20T02:13:59;99887.08;;;24.16;35.72
51053;BME280;37093;37.716;-122.060;2023-07-20T02:16:27;99889.75;;;24.51;35.30
51053;BME280;37093;37.716;-122.060;2023-07-20T02:18:55;99890.57;;;23.76;36.06
51053;BME280;37093;37.716;-122.060;2023-07-20T02:21:25;99886.03;;;24.32;35.32
51053;BME280;37093;37.716;-122.060;2023-07-20T02:23:54;99888.26;;;24.86;34.80
51053;BME280;37093;37.716;-122.060;2023-07-20T02:26:26;99887.65;;;24.43;35.28
51053;BME280;37093;37.716;-122.060;2023-07-20T02:28:54;99890.87;;;24.60;34.46
51053;BME280;37093;37.716;-122.060;2023-07-20T02:31:25;99891.87;;;24.67;34.80
51053;BME280;37093;37.716;-122.060;2023-07-20T02:33:54;99896.96;;;24.86;34.38
51053;BME280;37093;37.716;-122.060;2023-07-20T02:36:25;99893.65;;;24.12;35.32
51053;BME280;37093;37.716;-122.060;2023-07-20T02:38:56;99898.95;;;24.26;35.72
51053;BME280;37093;37.716;-122.060;2023-07-20T02:41:27;99901.06;;;23.68;36.89
51053;BME280;37093;37.716;-122.060;2023-07-20T02:43:56;99907.94;;;22.36;38.51
51053;BME280;37093;37.716;-122.060;2023-07-20T02:46:26;99908.62;;;23.13;38.24
51053;BME280;37093;37.716;-122.060;2023-07-20T02:48:55;99908.30;;;23.44;37.52
51053;BME280;37093;37.716;-122.060;2023-07-20T02:51:23;99911.45;;;22.57;38.85
51053;BME280;37093;37.716;-122.060;2023-07-20T02:53:51;99910.70;;;23.09;38.12
51053;BME280;37093;37.716;-122.060;2023-07-20T02:56:20;99911.21;;;23.11;37.96
51053;BME280;37093;37.716;-122.060;2023-07-20T02:58:48;99918.72;;;22.86;37.97
51053;BME280;37093;37.716;-122.060;2023-07-20T03:01:21;99919.42;;;22.60;38.64
51053;BME280;37093;37.716;-122.060;2023-07-20T03:03:49;99918.55;;;23.08;38.11
51053;BME280;37093;37.716;-122.060;2023-07-20T03:06:22;99921.31;;;23.21;37.78
51053;BME280;37093;37.716;-122.060;2023-07-20T03:08:52;99919.24;;;23.40;37.03
51053;BME280;37093;37.716;-122.060;2023-07-20T03:11:21;99920.54;;;23.21;36.91
51053;BME280;37093;37.716;-122.060;2023-07-20T03:13:49;99921.85;;;23.37;36.56
51053;BME280;37093;37.716;-122.060;2023-07-20T03:16:23;99924.94;;;22.99;37.16
51053;BME280;37093;37.716;-122.060;2023-07-20T03:18:51;99925.48;;;23.47;36.98
51053;BME280;37093;37.716;-122.060;2023-07-20T03:21:21;99927.38;;;22.47;38.45
51053;BME280;37093;37.716;-122.060;2023-07-20T03:23:51;99927.80;;;22.56;37.82
51053;BME280;37093;37.716;-122.060;2023-07-20T03:26:24;99927.20;;;21.55;40.24
51053;BME280;37093;37.716;-122.060;2023-07-20T03:28:53;99930.86;;;22.44;38.62
51053;BME280;37093;37.716;-122.060;2023-07-20T03:31:22;99933.80;;;22.23;39.57
51053;BME280;37093;37.716;-122.060;2023-07-20T03:33:50;99932.25;;;22.71;38.86
51053;BME280;37093;37.716;-122.060;2023-07-20T03:36:19;99930.83;;;22.36;38.80
51053;BME280;37093;37.716;-122.060;2023-07-20T03:38:47;99931.26;;;22.79;38.30
51053;BME280;37093;37.716;-122.060;2023-07-20T03:41:20;99932.18;;;22.76;38.31
51053;BME280;37093;37.716;-122.060;2023-07-20T03:43:50;99935.58;;;22.72;38.40
51053;BME280;37093;37.716;-122.060;2023-07-20T03:46:21;99941.26;;;22.19;39.93
51053;BME280;37093;37.716;-122.060;2023-07-20T03:48:50;99940.59;;;21.52;41.88
51053;BME280;37093;37.716;-122.060;2023-07-20T03:51:18;99946.75;;;21.41;41.95
51053;BME280;37093;37.716;-122.060;2023-07-20T03:53:47;99952.65;;;21.00;43.35
51053;BME280;37093;37.716;-122.060;2023-07-20T03:56:16;99954.88;;;20.14;44.57
51053;BME280;37093;37.716;-122.060;2023-07-20T03:58:44;99960.60;;;20.35;44.24
51053;BME280;37093;37.716;-122.060;2023-07-20T04:01:13;99964.17;;;20.43;44.13
51053;BME280;37093;37.716;-122.060;2023-07-20T04:03:42;99970.03;;;20.75;43.56
51053;BME280;37093;37.716;-122.060;2023-07-20T04:06:10;99977.54;;;20.60;43.19
51053;BME280;37093;37.716;-122.060;2023-07-20T04:08:39;99977.89;;;20.41;44.69
51053;BME280;37093;37.716;-122.060;2023-07-20T04:11:07;99978.73;;;20.05;45.99
51053;BME280;37093;37.716;-122.060;2023-07-20T04:13:35;99981.45;;;20.16;44.59
51053;BME280;37093;37.716;-122.060;2023-07-20T04:16:04;99980.30;;;20.14;45.23
51053;BME280;37093;37.716;-122.060;2023-07-20T04:18:32;99993.37;;;18.84;47.98
51053;BME280;37093;37.716;-122.060;2023-07-20T04:21:00;99994.85;;;19.69;47.32
51053;BME280;37093;37.716;-122.060;2023-07-20T04:23:28;99997.39;;;19.43;47.94
51053;BME280;37093;37.716;-122.060;2023-07-20T04:25:56;99998.86;;;19.36;47.43
51053;BME280;37093;37.716;-122.060;2023-07-20T04:28:24;100000.31;;;19.76;46.99
51053;BME280;37093;37.716;-122.060;2023-07-20T04:30:53;99998.71;;;19.68;47.54
51053;BME280;37093;37.716;-122.060;2023-07-20T04:33:21;100000.58;;;19.86;46.50
51053;BME280;37093;37.716;-122.060;2023-07-20T04:35:51;100000.29;;;19.51;46.80
51053;BME280;37093;37.716;-122.060;2023-07-20T04:38:20;100000.10;;;19.57;47.08
51053;BME280;37093;37.716;-122.060;2023-07-20T04:40:49;99999.98;;;19.51;46.56
51053;BME280;37093;37.716;-122.060;2023-07-20T04:43:18;100004.58;;;19.31;47.69
51053;BME280;37093;37.716;-122.060;2023-07-20T04:45:47;100004.40;;;19.35;47.86
51053;BME280;37093;37.716;-122.060;2023-07-20T04:48:16;100002.48;;;19.22;47.09
51053;BME280;37093;37.716;-122.060;2023-07-20T04:50:45;100004.06;;;19.27;47.20
51053;BME280;37093;37.716;-122.060;2023-07-20T04:53:14;100009.76;;;19.36;47.15
51053;BME280;37093;37.716;-122.060;2023-07-20T04:55:48;100006.42;;;19.35;46.67
51053;BME280;37093;37.716;-122.060;2023-07-20T04:58:17;100008.75;;;19.54;46.63
51053;BME280;37093;37.716;-122.060;2023-07-20T05:00:45;100010.65;;;18.92;48.72
51053;BME280;37093;37.716;-122.060;2023-07-20T05:03:13;100013.16;;;19.41;48.48
51053;BME280;37093;37.716;-122.060;2023-07-20T05:05:41;100015.10;;;18.69;48.29
51053;BME280;37093;37.716;-122.060;2023-07-20T05:08:10;100017.51;;;19.13;47.70
51053;BME280;37093;37.716;-122.060;2023-07-20T05:10:38;100021.31;;;18.81;48.63
51053;BME280;37093;37.716;-122.060;2023-07-20T05:13:07;100020.53;;;18.80;48.79
51053;BME280;37093;37.716;-122.060;2023-07-20T05:15:35;100022.24;;;19.05;48.56
51053;BME280;37093;37.716;-122.060;2023-07-20T05:18:03;100023.56;;;19.08;48.94
51053;BME280;37093;37.716;-122.060;2023-07-20T05:20:32;100026.48;;;19.17;48.20
51053;BME280;37093;37.716;-122.060;2023-07-20T05:23:00;100027.15;;;19.41;47.99
51053;BME280;37093;37.716;-122.060;2023-07-20T05:25:28;100028.61;;;18.74;49.43
51053;BME280;37093;37.716;-122.060;2023-07-20T05:27:56;100028.82;;;18.70;50.32
51053;BME280;37093;37.716;-122.060;2023-07-20T05:30:25;100026.95;;;18.80;49.36
51053;BME280;37093;37.716;-122.060;2023-07-20T05:32:53;100025.65;;;18.81;48.95
51053;BME280;37093;37.716;-122.060;2023-07-20T05:35:22;100025.33;;;18.83;49.26
51053;BME280;37093;37.716;-122.060;2023-07-20T05:37:50;100024.92;;;18.97;47.97
51053;BME280;37093;37.716;-122.060;2023-07-20T05:40:18;100027.29;;;19.09;47.69
51053;BME280;37093;37.716;-122.060;2023-07-20T05:42:47;100028.21;;;18.90;47.82
51053;BME280;37093;37.716;-122.060;2023-07-20T05:45:16;100024.65;;;18.92;47.83
51053;BME280;37093;37.716;-122.060;2023-07-20T05:47:44;100015.02;;;19.29;46.96
51053;BME280;37093;37.716;-122.060;2023-07-20T05:50:13;100015.63;;;19.56;46.49
51053;BME280;37093;37.716;-122.060;2023-07-20T05:52:41;100013.68;;;19.60;46.68
51053;BME280;37093;37.716;-122.060;2023-07-20T05:55:09;100014.39;;;19.39;47.15
51053;BME280;37093;37.716;-122.060;2023-07-20T05:57:37;100018.96;;;19.02;48.62
51053;BME280;37093;37.716;-122.060;2023-07-20T06:00:09;100020.92;;;19.11;48.17
51053;BME280;37093;37.716;-122.060;2023-07-20T06:02:37;100020.83;;;18.47;50.50
51053;BME280;37093;37.716;-122.060;2023-07-20T06:05:07;100020.31;;;18.50;50.25
51053;BME280;37093;37.716;-122.060;2023-07-20T06:07:35;100021.05;;;18.91;49.49
51053;BME280;37093;37.716;-122.060;2023-07-20T06:10:04;100019.04;;;18.53;49.91
51053;BME280;37093;37.716;-122.060;2023-07-20T06:12:33;100022.13;;;18.38;49.76
51053;BME280;37093;37.716;-122.060;2023-07-20T06:15:04;100026.82;;;18.17;50.56
51053;BME280;37093;37.716;-122.060;2023-07-20T06:17:32;100026.15;;;18.53;50.16
51053;BME280;37093;37.716;-122.060;2023-07-20T06:20:00;100026.27;;;18.80;50.09
51053;BME280;37093;37.716;-122.060;2023-07-20T06:22:28;100024.65;;;18.68;49.96
51053;BME280;37093;37.716;-122.060;2023-07-20T06:24:57;100024.35;;;18.36;50.60
51053;BME280;37093;37.716;-122.060;2023-07-20T06:27:25;100023.17;;;18.44;50.53
51053;BME280;37093;37.716;-122.060;2023-07-20T06:29:54;100022.89;;;18.97;50.31
51053;BME280;37093;37.716;-122.060;2023-07-20T06:32:22;100024.46;;;18.30;50.81
51053;BME280;37093;37.716;-122.060;2023-07-20T06:34:50;100023.08;;;18.90;50.75
51053;BME280;37093;37.716;-122.060;2023-07-20T06:37:19;100020.28;;;18.83;49.69
51053;BME280;37093;37.716;-122.060;2023-07-20T06:39:47;100017.90;;;18.87;49.18
51053;BME280;37093;37.716;-122.060;2023-07-20T06:42:15;100017.53;;;18.96;50.63
51053;BME280;37093;37.716;-122.060;2023-07-20T06:44:43;100021.52;;;19.12;50.51
51053;BME280;37093;37.716;-122.060;2023-07-20T06:47:12;100019.66;;;18.51;50.59
51053;BME280;37093;37.716;-122.060;2023-07-20T06:49:40;100018.24;;;18.25;51.00
51053;BME280;37093;37.716;-122.060;2023-07-20T06:52:08;100019.80;;;18.52;50.09
51053;BME280;37093;37.716;-122.060;2023-07-20T06:54:36;100019.36;;;18.67;49.79
51053;BME280;37093;37.716;-122.060;2023-07-20T06:57:05;100016.74;;;19.37;48.95
51053;BME280;37093;37.716;-122.060;2023-07-20T06:59:33;100019.09;;;19.50;48.50
51053;BME280;37093;37.716;-122.060;2023-07-20T07:01:13;100018.65;;;17.47;49.98
51053;BME280;37093;37.716;-122.060;2023-07-20T07:03:42;100014.07;;;17.91;46.97
51053;BME280;37093;37.716;-122.060;2023-07-20T07:06:10;100014.01;;;19.87;44.99
51053;BME280;37093;37.716;-122.060;2023-07-20T07:08:38;100017.45;;;19.20;47.41
51053;BME280;37093;37.716;-122.060;2023-07-20T07:11:07;100015.96;;;19.52;47.10
51053;BME280;37093;37.716;-122.060;2023-07-20T07:13:36;100015.89;;;19.15;47.98
51053;BME280;37093;37.716;-122.060;2023-07-20T07:16:05;100012.95;;;19.66;47.60
51053;BME280;37093;37.716;-122.060;2023-07-20T07:18:33;100011.96;;;19.35;48.13
51053;BME280;37093;37.716;-122.060;2023-07-20T07:21:01;100010.17;;;19.17;48.54
51053;BME280;37093;37.716;-122.060;2023-07-20T07:23:29;100010.46;;;18.74;49.31
51053;BME280;37093;37.716;-122.060;2023-07-20T07:25:58;100010.90;;;18.42;50.30
51053;BME280;37093;37.716;-122.060;2023-07-20T07:28:28;100008.81;;;18.37;49.61
51053;BME280;37093;37.716;-122.060;2023-07-20T07:30:56;100011.45;;;18.99;49.08
51053;BME280;37093;37.716;-122.060;2023-07-20T07:33:24;100013.52;;;19.02;49.52
51053;BME280;37093;37.716;-122.060;2023-07-20T07:35:53;100012.33;;;19.02;49.17
51053;BME280;37093;37.716;-122.060;2023-07-20T07:38:21;100010.67;;;18.83;49.97
51053;BME280;37093;37.716;-122.060;2023-07-20T07:40:49;100008.93;;;18.41;51.11
51053;BME280;37093;37.716;-122.060;2023-07-20T07:43:18;100011.54;;;18.24;51.23
51053;BME280;37093;37.716;-122.060;2023-07-20T07:45:46;100012.54;;;18.33;51.01
51053;BME280;37093;37.716;-122.060;2023-07-20T07:48:14;100011.04;;;18.43;50.89
51053;BME280;37093;37.716;-122.060;2023-07-20T07:50:43;100012.19;;;18.82;49.81
51053;BME280;37093;37.716;-122.060;2023-07-20T07:53:11;100009.73;;;18.75;50.02
51053;BME280;37093;37.716;-122.060;2023-07-20T07:55:39;100012.70;;;18.63;50.11
51053;BME280;37093;37.716;-122.060;2023-07-20T07:58:07;100012.22;;;18.82;49.69
51053;BME280;37093;37.716;-122.060;2023-07-20T08:00:35;100011.54;;;18.68;50.30
51053;BME280;37093;37.716;-122.060;2023-07-20T08:03:05;100011.92;;;18.75;50.04
51053;BME280;37093;37.716;-122.060;2023-07-20T08:05:34;100011.94;;;18.84;49.45
51053;BME280;37093;37.716;-122.060;2023-07-20T08:08:02;100014.09;;;18.42;51.68
51053;BME280;37093;37.716;-122.060;2023-07-20T08:10:30;100014.58;;;18.46;50.70
51053;BME280;37093;37.716;-122.060;2023-07-20T08:12:59;100015.38;;;18.65;51.41
51053;BME280;37093;37.716;-122.060;2023-07-20T08:15:27;100015.99;;;18.41;50.61
51053;BME280;37093;37.716;-122.060;2023-07-20T08:17:56;100011.10;;;18.60;51.58
51053;BME280;37093;37.716;-122.060;2023-07-20T08:20:24;100005.37;;;18.28;52.35
51053;BME280;37093;37.716;-122.060;2023-07-20T08:22:53;100004.98;;;18.19;51.54
51053;BME280;37093;37.716;-122.060;2023-07-20T08:25:22;100008.54;;;17.45;53.95
51053;BME280;37093;37.716;-122.060;2023-07-20T08:27:50;100005.37;;;18.90;51.97
51053;BME280;37093;37.716;-122.060;2023-07-20T08:30:21;100008.47;;;18.65;52.40
51053;BME280;37093;37.716;-122.060;2023-07-20T08:32:50;100006.59;;;18.43;53.51
51053;BME280;37093;37.716;-122.060;2023-07-20T08:35:18;100004.38;;;17.69;54.66
51053;BME280;37093;37.716;-122.060;2023-07-20T08:37:47;100000.31;;;18.52;53.20
51053;BME280;37093;37.716;-122.060;2023-07-20T08:40:15;99999.71;;;17.71;54.89
51053;BME280;37093;37.716;-122.060;2023-07-20T08:42:44;99996.71;;;18.26;54.05
51053;BME280;37093;37.716;-122.060;2023-07-20T08:45:13;99995.11;;;18.45;52.16
51053;BME280;37093;37.716;-122.060;2023-07-20T08:47:42;99992.28;;;18.82;52.31
51053;BME280;37093;37.716;-122.060;2023-07-20T08:50:12;99990.15;;;18.71;53.48
51053;BME280;37093;37.716;-122.060;2023-07-20T08:52:41;99990.13;;;18.98;51.82
51053;BME280;37093;37.716;-122.060;2023-07-20T08:55:10;99986.68;;;18.53;53.50
51053;BME280;37093;37.716;-122.060;2023-07-20T08:57:41;99986.71;;;17.98;56.39
51053;BME280;37093;37.716;-122.060;2023-07-20T09:00:14;99987.69;;;18.37;53.65
51053;BME280;37093;37.716;-122.060;2023-07-20T09:02:43;99986.53;;;18.55;52.96
51053;BME280;37093;37.716;-122.060;2023-07-20T09:05:13;99991.31;;;17.62;56.19
51053;BME280;37093;37.716;-122.060;2023-07-20T09:07:41;99987.03;;;17.13;58.22
51053;BME280;37093;37.716;-122.060;2023-07-20T09:10:10;99993.19;;;17.87;54.01
51053;BME280;37093;37.716;-122.060;2023-07-20T09:12:39;99991.76;;;18.28;52.96
51053;BME280;37093;37.716;-122.060;2023-07-20T09:15:10;99987.45;;;18.17;54.46
51053;BME280;37093;37.716;-122.060;2023-07-20T09:17:39;99983.57;;;18.73;52.76
51053;BME280;37093;37.716;-122.060;2023-07-20T09:20:16;99979.62;;;18.41;52.77
51053;BME280;37093;37.716;-122.060;2023-07-20T09:22:45;99979.57;;;18.37;52.55
51053;BME280;37093;37.716;-122.060;2023-07-20T09:25:15;99980.11;;;18.77;51.19
51053;BME280;37093;37.716;-122.060;2023-07-20T09:27:45;99974.41;;;19.13;50.26
51053;BME280;37093;37.716;-122.060;2023-07-20T09:30:15;99978.23;;;18.70;51.11
51053;BME280;37093;37.716;-122.060;2023-07-20T09:32:44;99978.94;;;18.02;52.61
51053;BME280;37093;37.716;-122.060;2023-07-20T09:35:14;99980.47;;;18.26;52.33
51053;BME280;37093;37.716;-122.060;2023-07-20T09:37:48;99979.38;;;18.25;52.23
51053;BME280;37093;37.716;-122.060;2023-07-20T09:40:50;99979.32;;;18.43;51.66
51053;BME280;37093;37.716;-122.060;2023-07-20T09:43:18;99979.39;;;18.91;50.87
51053;BME280;37093;37.716;-122.060;2023-07-20T09:45:46;99978.05;;;17.95;53.09
51053;BME280;37093;37.716;-122.060;2023-07-20T09:48:14;99975.66;;;18.08;52.89
51053;BME280;37093;37.716;-122.060;2023-07-20T09:50:48;99977.20;;;18.68;52.10
51053;BME280;37093;37.716;-122.060;2023-07-20T09:53:18;99975.11;;;18.19;52.52
51053;BME280;37093;37.716;-122.060;2023-07-20T09:55:47;99975.49;;;17.86;53.57
51053;BME280;37093;37.716;-122.060;2023-07-20T09:58:16;99975.65;;;17.97;53.55
51053;BME280;37093;37.716;-122.060;2023-07-20T10:00:45;99972.76;;;18.35;52.74
51053;BME280;37093;37.716;-122.060;2023-07-20T10:03:18;99972.05;;;17.90;52.17
51053;BME280;37093;37.716;-122.060;2023-07-20T10:05:51;99968.53;;;18.39;52.13
51053;BME280;37093;37.716;-122.060;2023-07-20T10:08:22;99966.69;;;18.50;52.44
51053;BME280;37093;37.716;-122.060;2023-07-20T10:10:51;99967.13;;;17.98;53.21
51053;BME280;37093;37.716;-122.060;2023-07-20T10:13:25;99962.40;;;18.12;54.26
51053;BME280;37093;37.716;-122.060;2023-07-20T10:15:58;99963.65;;;18.57;52.46
51053;BME280;37093;37.716;-122.060;2023-07-20T10:18:30;99959.65;;;18.39;52.29
51053;BME280;37093;37.716;-122.060;2023-07-20T10:21:01;99961.97;;;17.61;55.64
51053;BME280;37093;37.716;-122.060;2023-07-20T10:23:30;99962.46;;;18.48;53.57
51053;BME280;37093;37.716;-122.060;2023-07-20T10:25:59;99964.04;;;18.50;53.31
51053;BME280;37093;37.716;-122.060;2023-07-20T10:28:29;99959.96;;;18.41;54.13
51053;BME280;37093;37.716;-122.060;2023-07-20T10:30:57;99960.61;;;18.77;52.76
51053;BME280;37093;37.716;-122.060;2023-07-20T10:33:26;99958.41;;;18.26;52.78
51053;BME280;37093;37.716;-122.060;2023-07-20T10:35:55;99956.09;;;18.47;53.28
51053;BME280;37093;37.716;-122.060;2023-07-20T10:38:39;99955.72;;;18.32;53.71
51053;BME280;37093;37.716;-122.060;2023-07-20T10:41:18;99956.98;;;18.11;54.21
51053;BME280;37093;37.716;-122.060;2023-07-20T10:43:47;99960.71;;;18.27;53.27
51053;BME280;37093;37.716;-122.060;2023-07-20T10:46:34;99964.31;;;18.35;53.80
51053;BME280;37093;37.716;-122.060;2023-07-20T10:49:04;99963.06;;;18.40;53.58
51053;BME280;37093;37.716;-122.060;2023-07-20T10:51:40;99965.97;;;17.94;54.06
51053;BME280;37093;37.716;-122.060;2023-07-20T10:54:33;99961.39;;;17.93;54.39
51053;BME280;37093;37.716;-122.060;2023-07-20T10:57:23;99960.88;;;18.66;53.63
51053;BME280;37093;37.716;-122.060;2023-07-20T10:59:52;99959.43;;;18.07;54.48
51053;BME280;37093;37.716;-122.060;2023-07-20T11:02:20;99961.42;;;18.06;55.28
51053;BME280;37093;37.716;-122.060;2023-07-20T11:04:49;99958.92;;;17.51;56.63
51053;BME280;37093;37.716;-122.060;2023-07-20T11:07:17;99967.23;;;18.66;53.70
51053;BME280;37093;37.716;-122.060;2023-07-20T11:10:14;99970.33;;;18.11;53.44
51053;BME280;37093;37.716;-122.060;2023-07-20T11:12:42;99969.40;;;18.62;53.16
51053;BME280;37093;37.716;-122.060;2023-07-20T11:15:47;99968.15;;;18.50;53.57
51053;BME280;37093;37.716;-122.060;2023-07-20T11:18:16;99963.55;;;18.44;53.18
51053;BME280;37093;37.716;-122.060;2023-07-20T11:20:50;99962.04;;;18.77;52.54
51053;BME280;37093;37.716;-122.060;2023-07-20T11:23:20;99960.00;;;18.79;52.25
51053;BME280;37093;37.716;-122.060;2023-07-20T11:25:50;99954.35;;;18.80;52.79
51053;BME280;37093;37.716;-122.060;2023-07-20T11:28:18;99955.19;;;18.96;52.99
51053;BME280;37093;37.716;-122.060;2023-07-20T11:30:52;99955.47;;;19.05;51.98
51053;BME280;37093;37.716;-122.060;2023-07-20T11:33:20;99956.75;;;18.66;51.90
51053;BME280;37093;37.716;-122.060;2023-07-20T11:35:49;99954.10;;;18.50;52.64
51053;BME280;37093;37.716;-122.060;2023-07-20T11:38:18;99956.33;;;18.06;54.10
51053;BME280;37093;37.716;-122.060;2023-07-20T11:40:46;99951.24;;;18.23;53.51
51053;BME280;37093;37.716;-122.060;2023-07-20T11:43:15;99947.21;;;18.83;52.96
51053;BME280;37093;37.716;-122.060;2023-07-20T11:45:44;99950.89;;;19.02;52.81
51053;BME280;37093;37.716;-122.060;2023-07-20T11:48:15;99950.03;;;18.13;53.57
51053;BME280;37093;37.716;-122.060;2023-07-20T11:50:43;99946.92;;;18.84;52.24
51053;BME280;37093;37.716;-122.060;2023-07-20T11:53:12;99947.88;;;18.68;52.28
51053;BME280;37093;37.716;-122.060;2023-07-20T11:55:41;99947.03;;;18.16;55.00
51053;BME280;37093;37.716;-122.060;2023-07-20T11:58:10;99944.36;;;18.07;54.96
51053;BME280;37093;37.716;-122.060;2023-07-20T12:00:39;99946.99;;;18.32;54.38
51053;BME280;37093;37.716;-122.060;2023-07-20T12:03:09;99947.76;;;18.50;53.53
51053;BME280;37093;37.716;-122.060;2023-07-20T12:05:37;99946.85;;;18.87;54.01
51053;BME280;37093;37.716;-122.060;2023-07-20T12:08:06;99945.46;;;17.48;56.69
51053;BME280;37093;37.716;-122.060;2023-07-20T12:10:34;99946.84;;;18.68;54.73
51053;BME280;37093;37.716;-122.060;2023-07-20T12:13:03;99947.88;;;18.56;53.37
51053;BME280;37093;37.716;-122.060;2023-07-20T12:15:31;99949.95;;;18.52;53.23
51053;BME280;37093;37.716;-122.060;2023-07-20T12:18:01;99955.87;;;18.80;53.09
51053;BME280;37093;37.716;-122.060;2023-07-20T12:20:31;99955.84;;;18.52;53.89
51053;BME280;37093;37.716;-122.060;2023-07-20T12:23:02;99957.97;;;18.54;54.35
51053;BME280;37093;37.716;-122.060;2023-07-20T12:25:37;99958.73;;;18.47;54.26
51053;BME280;37093;37.716;-122.060;2023-07-20T12:28:07;99957.83;;;18.91;53.11
51053;BME280;37093;37.716;-122.060;2023-07-20T12:30:36;99960.62;;;18.82;52.85
51053;BME280;37093;37.716;-122.060;2023-07-20T12:33:05;99960.51;;;18.90;53.48
51053;BME280;37093;37.716;-122.060;2023-07-20T12:35:33;99961.26;;;18.97;53.14
51053;BME280;37093;37.716;-122.060;2023-07-20T12:38:02;99965.88;;;18.88;52.57
51053;BME280;37093;37.716;-122.060;2023-07-20T12:40:30;99964.16;;;18.96;52.90